createdAt,value
2023-04-17T00:00:27.779Z,6.30
2023-04-17T00:07:11.309Z,4.80
2023-04-17T00:13:53.467Z,10.30
2023-04-17T00:20:35.756Z,7.13
2023-04-17T00:27:17.990Z,7.22
2023-04-17T00:34:01.502Z,6.40
2023-04-17T00:40:45.526Z,6.85
2023-04-17T00:47:28.177Z,5.80
2023-04-17T00:54:11.465Z,5.88
2023-04-17T01:00:54.147Z,6.30
2023-04-17T01:07:38.849Z,8.02
2023-04-17T01:14:21.035Z,7.28
2023-04-17T01:21:03.398Z,5.78
2023-04-17T01:27:45.839Z,8.13
2023-04-17T01:34:28.098Z,6.55
2023-04-17T01:41:11.281Z,10.15
2023-04-17T01:47:53.913Z,7.70
2023-04-17T01:54:36.320Z,6.70
2023-04-17T02:01:18.560Z,6.15
2023-04-17T02:08:00.767Z,6.75
2023-04-17T02:14:42.982Z,7.30
2023-04-17T02:21:26.927Z,7.22
2023-04-17T02:28:32.965Z,9.70
2023-04-17T02:35:22.598Z,6.75
2023-04-17T02:42:05.865Z,8.27
2023-04-17T02:48:48.112Z,9.10
2023-04-17T02:55:30.626Z,10.02
2023-04-17T03:02:14.690Z,9.38
2023-04-17T03:08:57.285Z,9.63
2023-04-17T03:15:39.798Z,12.27
2023-04-17T03:22:22.073Z,13.02
2023-04-17T03:29:04.497Z,9.63
2023-04-17T03:35:46.784Z,10.98
2023-04-17T03:42:29.261Z,8.63
2023-04-17T03:49:11.764Z,10.27
2023-04-17T03:55:55.111Z,7.13
2023-04-17T04:02:45.492Z,6.93
2023-04-17T04:09:31.014Z,6.18
2023-04-17T04:16:14.451Z,7.38
2023-04-17T04:22:57.535Z,6.57
2023-04-17T04:29:40.059Z,8.10
2023-04-17T04:36:25.280Z,8.48
2023-04-17T04:43:22.849Z,8.55
2023-04-17T04:50:09.912Z,9.32
2023-04-17T04:56:52.693Z,9.05
2023-04-17T05:03:37.478Z,9.05
2023-04-17T05:17:08.449Z,12.88
2023-04-17T05:23:51.063Z,16.40
2023-04-17T05:30:34.025Z,10.68
2023-04-17T05:37:27.444Z,14.20
2023-04-17T05:44:11.442Z,12.38
2023-04-17T05:50:53.745Z,11.02
2023-04-17T05:57:35.962Z,9.43
2023-04-17T06:04:18.892Z,10.73
2023-04-17T06:11:02.940Z,7.75
2023-04-17T06:17:45.891Z,7.03
2023-04-17T06:24:28.741Z,9.02
2023-04-17T06:37:55.040Z,8.10
2023-04-17T06:44:38.169Z,8.10
2023-04-17T06:51:28.791Z,13.02
2023-04-17T06:58:10.981Z,10.98
2023-04-17T07:04:55.060Z,9.60
2023-04-17T07:11:37.446Z,10.27
2023-04-17T07:18:19.737Z,10.23
2023-04-17T07:25:01.982Z,11.60
2023-04-17T07:31:44.359Z,11.10
2023-04-17T07:38:27.077Z,9.77
2023-04-17T07:45:10.718Z,6.70
2023-04-17T07:51:53.346Z,9.10
2023-04-17T07:58:35.998Z,9.70
2023-04-17T08:05:18.418Z,9.07
2023-04-17T08:12:01.977Z,9.05
2023-04-17T08:18:44.211Z,9.10
2023-04-17T08:25:26.576Z,7.18
2023-04-17T08:32:14.717Z,7.55
2023-04-17T08:38:57.880Z,8.93
2023-04-17T08:45:53.661Z,7.53
2023-04-17T08:52:48.622Z,13.18
2023-04-17T08:59:32.243Z,21.30
2023-04-17T09:06:15.714Z,12.60
2023-04-17T09:13:01.354Z,14.75
2023-04-17T09:20:16.129Z,11.32
2023-04-17T09:27:26.203Z,9.38
2023-04-17T09:34:13.419Z,7.45
2023-04-17T09:40:55.797Z,11.60
2023-04-17T09:47:38.014Z,6.60
2023-04-17T09:54:23.199Z,12.32
2023-04-17T10:01:06.111Z,9.60
2023-04-17T10:07:49.498Z,11.20
2023-04-17T10:14:36.650Z,8.65
2023-04-17T10:21:24.919Z,14.98
2023-04-17T10:28:07.787Z,16.98
2023-04-17T10:34:50.057Z,18.17
2023-04-17T10:41:32.546Z,15.90
2023-04-17T10:48:47.594Z,11.65
2023-04-17T10:55:30.719Z,16.00
2023-04-17T11:02:16.109Z,15.13
2023-04-17T11:09:00.152Z,19.27
2023-04-17T11:15:42.368Z,13.73
2023-04-17T11:22:24.661Z,17.08
2023-04-17T11:29:18.547Z,15.02
2023-04-17T11:36:00.687Z,16.20
2023-04-17T11:42:46.309Z,19.58
2023-04-17T11:49:30.293Z,10.98
2023-04-17T11:56:16.416Z,14.07
2023-04-17T12:03:02.041Z,13.35
2023-04-17T12:09:57.564Z,12.88
2023-04-17T12:16:39.853Z,10.98
2023-04-17T12:23:22.083Z,13.85
2023-04-17T12:30:04.745Z,11.82
2023-04-17T12:36:47.000Z,13.75
2023-04-17T12:43:29.407Z,13.63
2023-04-17T12:50:12.406Z,12.30
2023-04-17T12:56:54.554Z,13.50
2023-04-17T13:03:37.305Z,13.88
2023-04-17T13:10:19.704Z,13.25
2023-04-17T13:17:02.815Z,11.30
2023-04-17T13:23:44.936Z,12.82
2023-04-17T13:30:27.802Z,12.18
2023-04-17T13:37:10.332Z,16.23
2023-04-17T13:43:53.752Z,15.40
2023-04-17T13:50:35.976Z,13.43
2023-04-17T13:57:18.641Z,10.80
2023-04-17T14:04:01.002Z,11.73
2023-04-17T14:10:43.554Z,9.23
2023-04-17T14:17:25.876Z,12.75
2023-04-17T14:24:08.210Z,12.70
2023-04-17T14:30:51.035Z,16.27
2023-04-17T14:37:34.166Z,12.57
2023-04-17T14:44:16.645Z,19.23
2023-04-17T14:51:00.738Z,10.35
2023-04-17T14:57:42.923Z,10.07
2023-04-17T15:04:25.244Z,14.48
2023-04-17T15:11:07.557Z,14.27
2023-04-17T15:17:49.784Z,15.60
2023-04-17T15:24:32.128Z,12.80
2023-04-17T15:31:14.375Z,39.22
2023-04-17T15:37:56.604Z,30.60
2023-04-17T15:44:39.068Z,24.02
2023-04-17T15:51:21.814Z,16.65
2023-04-17T15:58:04.339Z,19.88
2023-04-17T16:04:46.564Z,25.30
2023-04-17T16:11:29.054Z,18.40
2023-04-17T16:18:11.910Z,19.70
2023-04-17T16:24:54.017Z,24.20
2023-04-17T16:31:36.346Z,22.55
2023-04-17T16:38:18.669Z,22.67
2023-04-17T16:45:00.972Z,23.75
2023-04-17T16:51:43.231Z,27.02
2023-04-17T16:58:25.765Z,27.63
2023-04-17T17:05:08.841Z,26.48
2023-04-17T17:11:50.951Z,26.13
2023-04-17T17:18:33.099Z,25.85
2023-04-17T17:25:15.287Z,30.98
2023-04-17T17:31:57.589Z,28.00
2023-04-17T17:38:40.689Z,21.67
2023-04-17T17:45:23.003Z,24.77
2023-04-17T17:52:05.700Z,26.73
2023-04-17T17:58:48.125Z,24.55
2023-04-17T18:05:30.294Z,20.65
2023-04-17T18:12:12.428Z,27.73
2023-04-17T18:18:54.536Z,23.73
2023-04-17T18:25:36.888Z,19.55
2023-04-17T18:32:19.037Z,22.58
2023-04-17T18:39:01.160Z,22.38
2023-04-17T18:45:43.435Z,20.10
2023-04-17T18:52:25.643Z,21.80
2023-04-17T18:59:07.886Z,21.67
2023-04-17T19:05:50.191Z,25.10
2023-04-17T19:12:32.482Z,20.83
2023-04-17T19:25:57.986Z,19.48
2023-04-17T19:32:40.938Z,16.17
2023-04-17T19:39:26.818Z,25.65
2023-04-17T19:46:09.641Z,20.20
2023-04-17T19:52:52.421Z,19.52
2023-04-17T19:59:34.706Z,30.38
2023-04-17T20:06:17.054Z,20.90
2023-04-17T20:12:59.289Z,20.67
2023-04-17T20:19:41.524Z,20.60
2023-04-17T20:26:23.732Z,18.35
2023-04-17T20:33:05.945Z,26.40
2023-04-17T20:39:48.173Z,19.88
2023-04-17T20:46:30.608Z,21.27
2023-04-17T20:53:12.947Z,23.95
2023-04-17T20:59:55.548Z,21.30
2023-04-17T21:06:37.800Z,19.98
2023-04-17T21:13:19.972Z,19.70
2023-04-17T21:20:05.096Z,20.35
2023-04-17T21:33:29.437Z,21.15
2023-04-17T21:40:12.511Z,17.45
2023-04-17T21:46:54.849Z,22.15
2023-04-17T21:53:37.495Z,17.42
2023-04-17T22:00:20.051Z,16.55
2023-04-17T22:07:02.243Z,17.83
2023-04-17T22:13:45.151Z,18.58
2023-04-17T22:20:27.697Z,21.63
2023-04-17T22:28:25.090Z,19.50
2023-04-17T22:36:41.032Z,16.20
2023-04-17T22:44:57.062Z,20.48
2023-04-17T22:53:12.799Z,17.48
2023-04-17T23:01:28.447Z,21.15
2023-04-17T23:09:22.138Z,18.13
2023-04-17T23:16:04.613Z,16.50
2023-04-17T23:22:46.827Z,23.83
2023-04-17T23:29:29.407Z,20.92
2023-04-17T23:36:13.234Z,21.13
2023-04-17T23:42:55.704Z,20.77
2023-04-17T23:49:38.077Z,22.35
2023-04-17T23:56:22.675Z,19.48
